Huvudsida
METAR-TAF:

METAR-TAF

Flygplatser :

Bangkok-Suvarnabhumis flygplats

Bangkok-Suvarnabhumi, Thailand

latitud: 13-40-52N, longitud: 100-44-50E, höjd: 2 m

Aktuellt väderrapport

Denna rapport gjordes för 34 minuter sedan, klockan 13:00 UTC
Vind 13 kt från syd/sydväst
Temperatur 32°C
Fuktighet 67%
Tryck 1005 hPa
Sikt 10 km eller mer
Få moln på en höjd av 2000 ft

METAR: VTBS 241300Z 20013KT 9999 FEW020 32/25 Q1005 NOSIG

Tid: 20:34 (13:34 UTC)

Väderprognos

Denna rapport gjordes för 2 timmar och 34 minuter sedan, klockan 11:00 UTC
Prognos gäller från 24 kl. 12 UTC till 25 kl. 18 UTC
Vind 10 kt från syd
Sikt 10 km eller mer
Få moln på en höjd av 2000 ft

TAF: VTBS 241100Z 2412/2518 19010KT 9999 FEW020

Aktuella väderrapporter och prognoser från 4000 flygplatser (METAR- och TAF-rapporter).

De tillgängliga stationerna syns som gula och röda prickar på kartan.

För musen över prickarna för att se namnen på stationerna.

Klicka sedan för att få väderrapporter och prognoser.

För att ändra kartan: Klicka på de gröna knapparna med ett svart kors på för att zooma in; den gröna knappen med ett streck på för att zooma ut; eller på de gröna pilarna för angränsande kartor.


METAR-TAF: